Miller, Nebraska
Current Conditions -  °F | °C
As of 12:55 PM on Thursday 23 Oct 2014 (Local Time) from KLXN Reporting Station
Clear Clear  
Wind Chill: 62°   Ceiling: Unl
Heat Index: 62°   Visibility: 10mi
Dew Point: 61°   Wind: 9mph
Humidity: 96%   Direction: 200°SSW
Pressure: 30.08"   Gusts: NA
Location:  40.93°N, 99.39°W
Report Text: KLXN 231755Z AUTO 20008KT 10SM CLR 17/16 A3008 RMK AO2 T01670161 10167 20080
Loading
Personal Weather Stations






























Interactive Weather Map New forecast layout! Learn more

10-Day Weather Forecast

Advertisements
Track Severe Weather on mobile